Sweet Water, Illinois
Current Conditions -  °F | °C
As of 9:15 PM on Thursday 18 Dec 2014 (Local Time) from KPPQ Reporting Station
Overcast Overcast  
Wind Chill: 30°   Ceiling: 3000
Heat Index: 30°   Visibility: 10mi
Dew Point: 26°   Wind: 3mph
Humidity: 86%   Direction: 50°NE
Pressure: 30.29"   Gusts: NA
Location:  39.7431°N, 90.5444°W
Report Text: KPPQ 190315Z AUTO 05003KT 10SM OVC030 M01/M03 A3029 RMK AO2 T10111031
Loading
Personal Weather Stations






























Interactive Weather Map New forecast layout! Learn more

10-Day Weather Forecast

Advertisements
Track Severe Weather on mobile